Time;durP1;ratioP1;P1;durP2;ratioP2;P2;SDS_P1;SDS_P2;PMS_P1;PMS_P2;Temp;Humidity;BMP_temperature;BMP_pressure;BME280_temperature;BME280_humidity;BME280_pressure;Samples;Min_cycle;Max_cycle;Signal;HPM_P1;HPM_P2
2021/01/31 00:01:03;;;;;;;50.00;30.93;;;1.50;99.90;;;1.34;77.32;100320.94;4824604;29;20050;-78
2021/01/31 00:03:31;;;;;;;54.57;32.40;;;1.50;99.90;;;1.48;77.05;100324.75;4824703;29;20051;-77
2021/01/31 00:06:02;;;;;;;46.93;29.93;;;1.50;99.90;;;1.56;76.89;100326.69;4823387;29;20062;-79
2021/01/31 00:08:30;;;;;;;48.43;29.80;;;1.60;99.90;;;1.56;76.79;100352.75;4824576;29;20074;-76
2021/01/31 00:10:59;;;;;;;51.90;31.60;;;1.60;99.90;;;1.54;76.48;100324.88;4824504;29;20066;-77
2021/01/31 00:13:28;;;;;;;54.17;32.73;;;1.60;99.90;;;1.45;76.75;100330.75;4823122;29;20066;-78
2021/01/31 00:15:58;;;;;;;51.33;31.07;;;1.50;99.90;;;1.51;76.64;100325.69;4824519;29;20058;-76
2021/01/31 00:18:28;;;;;;;49.13;30.80;;;1.60;99.90;;;1.63;76.26;100335.50;4824505;29;20551;-77
2021/01/31 00:20:58;;;;;;;52.17;32.10;;;1.70;99.90;;;1.61;76.27;100345.00;4824463;29;20133;-78
2021/01/31 00:23:26;;;;;;;52.58;32.83;;;1.70;99.90;;;1.60;76.21;100351.09;4824307;29;20074;-78
2021/01/31 00:25:57;;;;;;;49.37;32.03;;;1.70;99.90;;;1.59;76.20;100355.41;4824521;29;20058;-78
2021/01/31 00:28:26;;;;;;;50.10;30.87;;;1.70;99.90;;;1.60;76.27;100351.09;4824298;29;20055;-78
2021/01/31 00:30:54;;;;;;;53.17;31.47;;;1.70;99.90;;;1.38;76.31;100333.19;4824296;29;20058;-78
2021/01/31 00:33:26;;;;;;;51.77;32.43;;;1.60;99.90;;;0.86;76.33;100221.72;4822927;29;20536;-78
2021/01/31 00:35:55;;;;;;;55.20;32.90;;;1.70;99.90;;;0.76;76.11;100218.03;4824174;29;20051;-77
2021/01/31 00:38:25;;;;;;;55.53;32.87;;;1.70;99.90;;;1.51;76.33;100361.31;4822925;29;20119;-77
2021/01/31 00:40:53;;;;;;;52.13;32.67;;;1.60;99.90;;;1.44;76.36;100351.56;4824175;29;20061;-78
2021/01/31 00:43:21;;;;;;;56.50;35.10;;;1.60;99.90;;;1.38;76.64;100356.63;4824056;29;20058;-78
2021/01/31 00:45:50;;;;;;;54.23;33.40;;;1.50;99.90;;;1.42;76.92;100361.06;4824075;29;20054;-77
2021/01/31 00:48:17;;;;;;;55.70;34.00;;;1.50;99.90;;;1.40;76.68;100357.53;4824221;29;20054;-78
2021/01/31 00:50:46;;;;;;;55.43;33.90;;;1.50;99.90;;;1.41;76.67;100360.22;4823875;29;20072;-77
2021/01/31 00:53:20;;;;;;;55.53;32.57;;;1.50;99.90;;;1.42;76.51;100356.75;4823996;29;20065;-78
2021/01/31 00:55:54;;;;;;;57.47;33.17;;;1.50;99.90;;;1.45;76.63;100361.16;4822827;29;20062;-78
2021/01/31 00:58:33;;;;;;;55.67;33.67;;;1.50;99.90;;;1.42;76.72;100377.59;4822687;29;20051;-77
2021/01/31 01:01:01;;;;;;;53.17;32.70;;;1.50;99.90;;;1.37;76.69;100367.91;4822579;29;20120;-77
2021/01/31 01:03:29;;;;;;;55.23;33.07;;;1.50;99.90;;;1.43;76.67;100378.47;4822806;29;20580;-77
2021/01/31 01:06:04;;;;;;;53.93;33.10;;;1.50;99.90;;;1.37;76.71;100378.31;4824039;29;20050;-78
2021/01/31 01:08:31;;;;;;;55.43;32.73;;;1.50;99.90;;;1.29;76.55;100374.66;4823881;29;20058;-78
2021/01/31 01:10:59;;;;;;;52.53;33.00;;;1.40;99.90;;;1.24;77.06;100376.28;4823657;29;20111;-78
2021/01/31 01:13:27;;;;;;;58.40;34.03;;;1.30;99.90;;;1.19;77.01;100367.44;4823452;29;20060;-76
2021/01/31 01:15:54;;;;;;;55.67;32.73;;;1.30;99.90;;;1.22;76.72;100388.38;4823912;29;20091;-78
2021/01/31 01:18:22;;;;;;;55.27;33.20;;;1.30;99.90;;;1.22;77.18;100377.94;4823803;29;20054;-78
2021/01/31 01:20:50;;;;;;;57.97;34.60;;;1.30;99.90;;;1.22;77.01;100375.34;4823798;29;20066;-78
2021/01/31 01:23:19;;;;;;;53.97;32.70;;;1.30;99.90;;;1.28;77.07;100378.97;4823681;29;20062;-78
2021/01/31 01:25:47;;;;;;;54.20;32.53;;;1.30;99.90;;;0.75;77.01;100296.94;4823539;29;20134;-78
2021/01/31 01:28:15;;;;;;;53.57;33.47;;;1.30;99.90;;;1.14;77.33;100367.34;4823784;29;20050;-78
2021/01/31 01:30:43;;;;;;;56.93;34.40;;;1.30;99.90;;;1.15;77.32;100370.81;4823530;29;20454;-77
2021/01/31 01:33:10;;;;;;;55.80;33.20;;;1.20;99.90;;;1.07;77.25;100367.13;4823434;29;20082;-78
2021/01/31 01:35:37;;;;;;;54.87;32.83;;;1.20;99.90;;;0.97;77.46;100342.59;4823563;29;20139;-78
2021/01/31 01:38:05;;;;;;;55.30;33.77;;;1.20;99.90;;;1.11;77.32;100374.19;4823487;29;20133;-78
2021/01/31 01:40:37;;;;;;;55.40;32.57;;;1.20;99.90;;;1.08;77.23;100368.91;4823436;29;20058;-78
2021/01/31 01:43:06;;;;;;;60.43;34.07;;;1.20;99.90;;;0.77;77.71;100331.66;4823680;29;20064;-77
2021/01/31 01:45:33;;;;;;;55.37;32.83;;;1.10;99.90;;;0.99;77.87;100366.09;4823548;29;20136;-77
2021/01/31 01:48:11;;;;;;;51.63;32.20;;;1.10;99.90;;;0.98;77.77;100370.41;4823457;29;20050;-78
2021/01/31 01:50:46;;;;;;;56.60;33.17;;;1.10;99.90;;;0.88;78.06;100360.59;4822239;29;20131;-78
2021/01/31 01:53:16;;;;;;;54.43;32.73;;;1.00;99.90;;;0.24;78.05;100235.78;4823629;29;20172;-78
2021/01/31 01:55:58;;;;;;;54.70;32.67;;;1.00;99.90;;;0.89;77.90;100357.16;4823641;29;20072;-77
2021/01/31 01:58:28;;;;;;;52.40;31.27;;;1.00;99.90;;;0.93;77.91;100346.84;4823427;29;20062;-77
2021/01/31 02:00:57;;;;;;;55.13;33.22;;;1.00;99.90;;;0.19;77.92;100237.38;4823350;29;20062;-77
2021/01/31 02:03:29;;;;;;;52.10;32.23;;;1.00;99.90;;;0.85;77.79;100350.97;4824430;29;20148;-78
2021/01/31 02:06:03;;;;;;;56.43;32.43;;;1.00;99.90;;;0.76;77.89;100357.66;4825424;29;20508;-78
2021/01/31 02:08:30;;;;;;;54.57;32.23;;;0.90;99.90;;;0.75;78.04;100361.13;4826613;29;20066;-77
2021/01/31 02:10:58;;;;;;;57.43;33.53;;;0.90;99.90;;;-0.06;78.27;100214.19;4825330;29;20054;-78
2021/01/31 02:13:26;;;;;;;55.00;32.40;;;0.90;99.90;;;0.82;78.13;100350.00;4825984;29;20083;-77
2021/01/31 02:15:59;;;;;;;53.97;32.10;;;0.90;99.90;;;0.70;78.47;100357.50;4826255;29;20579;-78
2021/01/31 02:18:36;;;;;;;54.57;33.83;;;0.80;99.90;;;0.61;78.53;100360.75;4826270;29;20548;-76
2021/01/31 02:21:47;;;;;;;53.70;32.43;;;0.80;99.90;;;0.64;78.63;100363.44;4825152;29;20103;-78
2021/01/31 02:24:40;;;;;;;55.97;33.93;;;0.80;99.90;;;0.53;78.57;100348.38;4825057;29;20073;-78
2021/01/31 02:27:34;;;;;;;59.77;32.97;;;0.70;99.90;;;0.59;79.09;100361.53;4826110;29;20062;-78
2021/01/31 02:30:59;;;;;;;55.90;31.90;;;0.70;99.90;;;0.71;78.56;100352.34;4826162;29;20058;-78
2021/01/31 02:33:40;;;;;;;63.07;34.10;;;0.80;99.90;;;0.61;78.47;100354.66;4803774;29;20066;-78
2021/01/31 02:36:14;;;;;;;59.37;33.90;;;0.80;99.90;;;0.06;78.59;100291.59;4825995;29;20109;-78
2021/01/31 02:38:53;;;;;;;58.70;34.87;;;0.70;99.90;;;0.45;79.04;100355.97;4825904;29;20055;-78
2021/01/31 02:41:31;;;;;;;56.70;33.97;;;0.60;99.90;;;0.50;78.95;100353.50;4824917;29;20054;-78
2021/01/31 02:44:04;;;;;;;59.30;33.67;;;0.60;99.90;;;-0.02;78.90;100255.88;4825851;29;20513;-77
2021/01/31 02:46:38;;;;;;;55.30;33.30;;;0.70;99.90;;;0.29;78.45;100285.31;4825928;29;20497;-78
2021/01/31 02:49:14;;;;;;;62.17;36.27;;;0.80;99.90;;;0.71;78.44;100339.34;4825730;29;20531;-78
2021/01/31 02:51:48;;;;;;;59.07;32.97;;;0.80;99.90;;;0.63;78.42;100333.06;4825927;29;20058;-78
2021/01/31 02:54:22;;;;;;;54.60;32.60;;;0.70;99.90;;;0.60;78.50;100314.75;4825653;29;20070;-78
2021/01/31 02:56:55;;;;;;;57.40;33.07;;;0.80;99.90;;;0.70;78.45;100331.47;4825644;29;20066;-78
2021/01/31 02:59:28;;;;;;;57.80;33.77;;;0.80;99.90;;;0.70;78.20;100334.97;4825668;29;20055;-78
2021/01/31 03:02:02;;;;;;;60.80;34.27;;;0.80;99.90;;;0.64;78.44;100371.22;4825573;29;20116;-78
2021/01/31 03:04:36;;;;;;;56.63;34.47;;;0.80;99.90;;;0.68;78.44;100341.84;4824540;29;20497;-78
2021/01/31 03:07:11;;;;;;;57.03;33.97;;;0.80;99.90;;;0.67;78.26;100349.63;4825633;29;20063;-78
2021/01/31 03:09:46;;;;;;;58.13;33.67;;;0.80;99.90;;;0.60;78.26;100332.09;4824247;29;20178;-78
2021/01/31 03:12:20;;;;;;;59.37;34.70;;;0.80;99.90;;;0.64;78.21;100342.59;4825423;29;20463;-78
2021/01/31 03:14:56;;;;;;;56.30;34.07;;;0.80;99.90;;;0.64;78.08;100349.56;4823017;29;20062;-78
2021/01/31 03:17:30;;;;;;;58.10;32.97;;;0.80;99.90;;;0.73;78.11;100348.06;4825403;29;20115;-78
2021/01/31 03:20:05;;;;;;;58.00;32.60;;;0.80;99.90;;;0.66;77.88;100332.22;4825365;29;20107;-76
2021/01/31 03:22:40;;;;;;;56.20;32.60;;;0.80;99.90;;;0.54;78.02;100338.00;4825269;29;20066;-78
2021/01/31 03:25:14;;;;;;;56.07;32.87;;;0.70;99.90;;;0.54;77.83;100335.41;4825431;29;20054;-79
2021/01/31 03:27:43;;;;;;;55.33;32.80;;;0.70;99.90;;;0.48;78.03;100342.19;4825364;29;20413;-79
2021/01/31 03:30:14;;;;;;;54.23;32.30;;;0.70;99.90;;;0.51;78.14;100343.13;4825233;29;20085;-78
2021/01/31 03:32:48;;;;;;;53.07;32.53;;;0.70;99.90;;;0.50;77.86;100343.09;4825095;29;20054;-78
2021/01/31 03:35:21;;;;;;;53.90;32.77;;;0.60;99.90;;;0.53;77.93;100346.66;4824990;29;20070;-78
2021/01/31 03:37:53;;;;;;;55.03;32.50;;;0.60;99.90;;;0.48;78.22;100344.78;4825025;29;20050;-78
2021/01/31 03:40:24;;;;;;;53.80;32.63;;;0.60;99.90;;;0.49;78.08;100376.03;4823809;29;20062;-78
2021/01/31 03:42:54;;;;;;;54.77;32.97;;;0.60;99.90;;;0.58;78.02;100357.19;4824992;29;20054;-77
2021/01/31 03:45:29;;;;;;;53.30;31.53;;;0.60;99.90;;;0.32;77.88;100330.47;4824807;29;20141;-78
2021/01/31 03:48:03;;;;;;;53.20;31.73;;;0.60;99.90;;;0.57;77.85;100356.31;4825393;29;20114;-78
2021/01/31 03:50:32;;;;;;;56.20;33.07;;;0.70;99.90;;;0.47;77.50;100341.28;4823612;29;20062;-78
2021/01/31 03:53:00;;;;;;;56.33;33.67;;;0.70;99.90;;;0.49;77.78;100339.59;4824698;29;20050;-79
2021/01/31 03:55:27;;;;;;;56.20;32.40;;;0.60;99.90;;;0.45;77.84;100350.75;4825014;29;20050;-78
2021/01/31 03:58:00;;;;;;;53.97;32.03;;;0.60;99.90;;;0.55;78.02;100357.97;4824671;29;20138;-78
2021/01/31 04:00:31;;;;;;;56.73;33.40;;;0.60;99.90;;;0.50;77.96;100353.50;4824989;29;20070;-79
2021/01/31 04:03:09;;;;;;;58.33;33.67;;;0.60;99.90;;;0.51;77.92;100344.84;4824847;29;20109;-78
2021/01/31 04:05:41;;;;;;;52.60;32.63;;;0.70;99.90;;;0.47;77.95;100362.09;4824765;29;20460;-77
2021/01/31 04:08:12;;;;;;;50.80;31.33;;;0.60;99.90;;;0.55;77.77;100357.97;4823380;29;20062;-78
2021/01/31 04:10:42;;;;;;;54.37;32.50;;;0.60;99.90;;;0.52;77.64;100354.44;4824664;29;20050;-78
2021/01/31 04:13:10;;;;;;;54.47;31.30;;;0.60;99.90;;;0.50;77.72;100335.28;4824446;29;20478;-78
2021/01/31 04:15:43;;;;;;;54.07;31.37;;;0.70;99.90;;;0.34;77.54;100354.81;4824769;29;20110;-78
2021/01/31 04:18:13;;;;;;;57.53;33.83;;;0.60;99.90;;;0.33;78.12;100347.81;4823313;29;20065;-79
2021/01/31 04:20:46;;;;;;;54.63;31.97;;;0.50;99.90;;;0.10;77.95;100330.69;4824493;29;20413;-78
2021/01/31 04:23:14;;;;;;;54.33;32.20;;;0.40;99.90;;;0.24;78.08;100336.28;4824599;29;20062;-79
2021/01/31 04:25:42;;;;;;;54.03;31.10;;;0.40;99.90;;;0.31;78.23;100346.91;4822932;29;20153;-78
2021/01/31 04:28:13;;;;;;;53.40;31.40;;;0.50;99.90;;;0.34;78.05;100349.59;4824394;29;20140;-79
2021/01/31 04:30:44;;;;;;;57.13;32.70;;;0.50;99.90;;;0.31;77.89;100374.66;4824404;29;20054;-78
2021/01/31 04:33:13;;;;;;;53.00;31.38;;;0.50;99.90;;;0.30;78.41;100355.56;4824697;29;20126;-78
2021/01/31 04:35:42;;;;;;;55.20;33.00;;;0.40;99.90;;;0.22;78.38;100363.97;4824195;29;20058;-78
2021/01/31 04:38:11;;;;;;;54.43;32.03;;;0.40;99.90;;;0.21;78.22;100357.91;4824365;29;20062;-78
2021/01/31 04:40:38;;;;;;;57.30;33.20;;;0.40;99.90;;;-0.46;78.21;100224.28;4824073;29;20496;-78
2021/01/31 04:43:12;;;;;;;56.03;32.13;;;0.40;99.90;;;-0.48;78.37;100244.13;4824191;29;20081;-78
2021/01/31 04:45:40;;;;;;;55.37;32.57;;;0.40;99.90;;;0.03;78.50;100326.19;4824171;29;20062;-78
2021/01/31 04:48:23;;;;;;;54.97;32.27;;;0.30;99.90;;;0.21;78.71;100368.31;4824012;29;20090;-78
2021/01/31 04:51:08;;;;;;;52.57;31.93;;;0.30;99.90;;;0.21;78.63;100357.00;4824032;29;20065;-78
2021/01/31 04:54:01;;;;;;;54.33;32.57;;;0.40;99.90;;;0.24;78.47;100363.19;4824086;29;20069;-76
2021/01/31 04:56:47;;;;;;;52.13;31.43;;;0.30;99.90;;;0.33;78.74;100362.56;4822678;29;20535;-78
2021/01/31 04:59:26;;;;;;;50.67;31.53;;;0.40;99.90;;;0.28;78.40;100378.03;4824144;29;20505;-79
2021/01/31 05:02:01;;;;;;;55.40;32.33;;;0.40;99.90;;;0.32;78.32;100382.47;4824035;29;20062;-78
2021/01/31 05:04:30;;;;;;;50.60;30.97;;;0.40;99.90;;;0.21;78.35;100357.91;4823905;29;20070;-78
2021/01/31 05:07:05;;;;;;;52.33;31.77;;;0.50;99.90;;;0.34;78.02;100375.59;4823731;29;20054;-78
2021/01/31 05:09:33;;;;;;;52.93;32.37;;;0.50;99.90;;;0.35;77.76;100371.28;4823928;29;20062;-77
2021/01/31 05:12:13;;;;;;;52.23;31.17;;;0.50;99.90;;;0.28;77.97;100367.63;4823917;29;20137;-78
2021/01/31 05:15:10;;;;;;;50.95;31.55;;;0.40;99.90;;;0.19;77.94;100382.97;4824101;29;20147;-79
2021/01/31 05:17:39;;;;;;;54.10;31.93;;;0.40;99.90;;;0.15;78.05;100362.03;4822678;29;20058;-79
2021/01/31 05:20:09;;;;;;;53.90;32.13;;;0.30;99.90;;;-0.18;79.14;100361.94;4823901;29;20093;-79
2021/01/31 05:22:41;;;;;;;56.97;32.13;;;0.10;99.90;;;-0.23;78.97;100325.41;4823903;29;20063;-78
2021/01/31 05:25:19;;;;;;;54.27;32.63;;;0.10;99.90;;;0.05;78.95;100350.50;4822519;29;20066;-77
2021/01/31 05:27:49;;;;;;;53.27;33.13;;;0.20;99.90;;;0.07;78.94;100348.81;4823557;29;20054;-79
2021/01/31 05:30:17;;;;;;;54.58;32.92;;;0.20;99.90;;;0.09;78.98;100354.06;4823546;29;20054;-79
2021/01/31 05:33:05;;;;;;;53.17;31.30;;;0.20;99.90;;;-0.05;78.99;100322.47;4823789;29;20054;-78
2021/01/31 05:35:36;;;;;;;53.73;31.50;;;0.30;99.90;;;0.04;79.15;100359.09;4823834;29;20523;-78
2021/01/31 05:38:04;;;;;;;56.50;33.20;;;0.20;99.90;;;-0.04;79.10;100364.09;4824295;29;20062;-79
2021/01/31 05:40:36;;;;;;;55.00;31.97;;;0.10;99.90;;;-0.01;79.51;100350.31;4826859;29;20409;-79
2021/01/31 05:43:06;;;;;;;54.67;32.40;;;0.10;99.90;;;-0.08;79.21;100370.03;4825770;29;20062;-79
2021/01/31 05:45:37;;;;;;;58.15;33.50;;;0.10;99.90;;;-0.01;79.45;100359.00;4826792;29;20057;-79
2021/01/31 05:48:22;;;;;;;57.53;33.63;;;0.10;99.90;;;-0.05;79.19;100353.66;4826866;29;20067;-79
2021/01/31 05:50:50;;;;;;;55.27;32.70;;;0.10;99.90;;;-0.09;79.47;100363.09;4826706;29;20115;-78
2021/01/31 05:53:35;;;;;;;56.13;33.70;;;0.10;99.90;;;-0.03;79.72;100364.97;4826631;29;20408;-79
2021/01/31 05:56:22;;;;;;;56.97;32.53;;;0.10;99.90;;;-0.11;79.46;100364.75;4825515;29;20054;-78
2021/01/31 05:58:52;;;;;;;54.33;31.93;;;0.00;99.90;;;-0.06;79.34;100360.56;4825551;29;20059;-79
2021/01/31 06:01:20;;;;;;;59.53;33.97;;;0.10;99.90;;;-0.11;79.74;100350.88;4826583;29;20141;-78
2021/01/31 06:03:47;;;;;;;57.27;34.47;;;0.10;99.90;;;-0.06;79.77;100352.75;4825524;29;20115;-78
2021/01/31 06:06:24;;;;;;;55.60;34.13;;;0.10;99.90;;;-0.20;79.55;100328.13;4826653;29;20082;-79
2021/01/31 06:08:54;;;;;;;59.07;34.20;;;0.10;99.90;;;-0.18;79.43;100370.63;4826459;29;20054;-80
2021/01/31 06:11:26;;;;;;;58.83;33.13;;;0.10;99.90;;;-0.14;79.46;100353.41;4826292;29;20054;-79
2021/01/31 06:14:07;;;;;;;55.97;32.57;;;0.00;99.90;;;-0.15;79.32;100351.63;4826081;29;20124;-79
2021/01/31 06:16:37;;;;;;;56.40;32.50;;;0.00;99.90;;;-0.84;79.57;100241.31;4825305;29;20057;-79
2021/01/31 06:19:11;;;;;;;62.30;35.22;;;-0.10;99.90;;;-0.25;79.63;100353.06;4826348;29;20475;-78
2021/01/31 06:21:42;;;;;;;62.63;33.93;;;-0.10;99.90;;;-0.35;80.41;100339.78;4826238;29;20050;-79
2021/01/31 06:24:25;;;;;;;58.87;33.83;;;-0.20;99.90;;;-0.35;80.57;100353.63;4826223;29;20062;-79
2021/01/31 06:26:57;;;;;;;59.80;34.27;;;-0.20;99.90;;;-0.42;80.48;100345.59;4826440;29;20062;-79
2021/01/31 06:29:35;;;;;;;;;;;-0.30;99.90;;;-0.49;80.29;100318.56;4826646;29;20058;-78
2021/01/31 06:32:09;;;;;;;59.40;33.33;;;-0.20;99.90;;;-0.39;80.18;100328.41;4826072;29;19973;-79
2021/01/31 06:34:37;;;;;;;60.63;33.80;;;-0.20;99.90;;;-0.55;80.37;100333.06;4825957;29;20065;-79
2021/01/31 06:37:30;;;;;;;62.40;35.23;;;-0.30;99.90;;;-0.53;80.89;100334.00;4826122;29;20489;-80
2021/01/31 06:40:14;;;;;;;63.27;34.70;;;-0.30;99.90;;;-0.65;80.46;100337.09;4824836;29;20082;-80
2021/01/31 06:42:55;;;;;;;61.23;34.10;;;-0.40;99.90;;;-0.84;81.60;100326.09;4825815;29;20436;-79
2021/01/31 06:45:33;;;;;;;67.33;35.87;;;-0.50;99.90;;;-0.56;81.36;100352.09;4826069;29;20608;-79
2021/01/31 06:48:28;;;;;;;59.73;34.20;;;-0.40;99.90;;;-0.72;81.34;100358.53;4824698;29;20058;-79
2021/01/31 06:51:12;;;;;;;64.30;32.67;;;-0.50;99.90;;;-0.60;81.50;100352.84;4825665;29;20062;-79
2021/01/31 06:54:27;;;;;;;58.87;34.53;;;-0.50;99.90;;;-1.20;81.46;100254.00;4825672;29;20058;-79
2021/01/31 06:58:02;;;;;;;59.17;33.13;;;-0.50;99.90;;;-0.66;81.88;100348.34;4825754;29;20077;-79
2021/01/31 07:01:23;;;;;;;59.97;32.33;;;-0.60;99.90;;;-0.63;81.78;100351.00;4825727;29;20057;-78
2021/01/31 07:04:34;;;;;;;62.60;34.57;;;-0.50;99.90;;;-0.57;81.42;100371.09;4793185;29;20462;-78
2021/01/31 07:08:03;;;;;;;58.17;33.13;;;-0.40;99.90;;;-0.51;81.36;100363.50;4824461;29;20054;-79
2021/01/31 07:11:06;;;;;;;58.13;32.70;;;-0.40;99.90;;;-0.38;81.02;100381.22;4824219;29;20058;-78
2021/01/31 07:13:59;;;;;;;57.50;33.40;;;-0.30;99.90;;;-0.41;80.53;100375.94;4825285;29;20566;-78
2021/01/31 07:16:43;;;;;;;57.93;33.47;;;-0.20;99.90;;;-0.31;80.68;100378.00;4825346;29;20062;-78
2021/01/31 07:19:18;;;;;;;60.40;33.83;;;-0.20;99.90;;;-0.39;80.60;100380.34;4825305;29;20133;-78
2021/01/31 07:21:59;;;;;;;57.77;33.53;;;-0.20;99.90;;;-0.25;80.37;100392.03;4825394;29;20058;-78
2021/01/31 07:24:38;;;;;;;55.80;31.53;;;-0.20;99.90;;;-0.20;79.84;100393.06;4825245;29;20062;-78
2021/01/31 07:27:18;;;;;;;57.90;33.53;;;-0.10;99.90;;;-0.17;79.70;100395.75;4824182;29;20062;-79
2021/01/31 07:30:04;;;;;;;58.33;32.95;;;0.00;99.90;;;-0.21;79.83;100385.22;4825619;29;20517;-79
2021/01/31 07:32:56;;;;;;;53.27;31.10;;;0.00;99.90;;;-0.17;79.68;100389.66;4825008;29;20058;-78
2021/01/31 07:35:26;;;;;;;54.90;32.70;;;0.00;99.90;;;-0.10;79.54;100383.84;4825310;29;20055;-79
2021/01/31 07:38:08;;;;;;;54.80;32.73;;;0.00;99.90;;;-0.07;79.45;100386.50;4825179;29;20046;-78
2021/01/31 07:40:36;;;;;;;58.43;33.67;;;0.10;99.90;;;0.11;79.55;100396.56;4825348;29;20099;-79
2021/01/31 07:43:06;;;;;;;54.60;31.77;;;0.20;99.90;;;0.17;78.92;100391.56;4825029;29;20147;-78
2021/01/31 07:45:34;;;;;;;54.70;32.40;;;0.30;99.90;;;0.17;78.68;100402.84;4824909;29;20059;-79
2021/01/31 07:48:39;;;;;;;56.80;33.47;;;0.30;99.90;;;0.22;78.45;100380.44;4823781;29;20187;-78
2021/01/31 07:51:08;;;;;;;56.03;33.20;;;0.40;99.90;;;0.36;77.67;100391.25;4822864;29;20065;-79
2021/01/31 07:53:38;;;;;;;53.33;32.53;;;0.50;99.90;;;-0.05;77.52;100315.56;4824727;29;20556;-78
2021/01/31 07:56:29;;;;;;;52.17;31.92;;;0.50;99.90;;;0.48;77.55;100392.47;4823769;29;20124;-79
2021/01/31 07:58:59;;;;;;;52.60;31.30;;;0.60;99.90;;;0.71;76.97;100408.72;4824857;29;20058;-79
2021/01/31 08:01:49;;;;;;;50.42;30.50;;;0.70;99.90;;;0.62;76.39;100409.34;4823907;29;20393;-79
2021/01/31 08:04:47;;;;;;;49.17;29.87;;;0.80;99.90;;;0.75;75.91;100406.25;4824637;29;20062;-76
2021/01/31 08:08:02;;;;;;;52.23;30.53;;;0.80;99.90;;;0.74;76.15;100400.97;4823574;29;20069;-74
2021/01/31 08:10:49;;;;;;;54.67;32.53;;;0.80;99.90;;;0.24;76.39;100396.97;4824231;29;20062;-74
2021/01/31 08:13:40;;;;;;;49.87;30.53;;;0.60;99.90;;;0.62;77.05;100396.31;4824458;29;20114;-74
2021/01/31 08:16:54;;;;;;;49.73;30.10;;;0.70;99.90;;;0.88;76.23;100407.44;4824564;29;20103;-74
2021/01/31 08:19:30;;;;;;;53.53;31.87;;;0.90;99.90;;;0.82;76.01;100391.66;4823417;29;20092;-75
2021/01/31 08:22:01;;;;;;;53.87;31.83;;;1.00;99.90;;;0.95;75.05;100391.13;4824495;29;20058;-76
2021/01/31 08:25:00;;;;;;;;;;;1.20;99.90;;;0.80;76.11;100398.53;4825018;29;20070;-77
2021/01/31 08:27:52;;;;;;;46.40;28.93;;;0.90;99.90;;;0.81;75.80;100388.16;4823333;29;19944;-74
2021/01/31 08:30:29;;;;;;;48.17;29.40;;;1.00;99.90;;;1.10;75.25;100388.94;4820367;29;20058;-76
2021/01/31 08:33:19;;;;;;;52.57;31.27;;;1.10;99.90;;;0.65;74.86;100383.41;4824266;29;20058;-79
2021/01/31 08:36:05;;;;;;;51.10;31.40;;;1.10;99.90;;;0.20;75.16;100252.13;4824105;29;20058;-76
2021/01/31 08:38:45;;;;;;;46.47;28.53;;;1.10;99.90;;;0.89;75.35;100376.25;4823991;29;20138;-75
2021/01/31 08:41:36;;;;;;;49.30;31.00;;;1.00;99.90;;;1.50;74.97;100380.38;4824011;29;20054;-75
2021/01/31 08:44:54;;;;;;;;;;;1.40;99.90;;;1.48;73.66;100361.22;4823340;29;20051;-74
2021/01/31 08:47:21;;;;;;;50.00;30.57;;;1.60;99.90;;;1.09;73.66;100345.50;4767772;30;19926;-75
2021/01/31 08:50:00;;;;;;;52.13;31.13;;;1.40;99.90;;;0.93;74.28;100328.63;4767575;30;20091;-75
2021/01/31 08:52:28;;;;;;;48.77;30.43;;;1.30;99.90;;;1.24;74.25;100348.47;4797517;29;20050;-75
2021/01/31 08:55:04;;;;;;;50.13;29.93;;;1.30;99.90;;;1.03;74.11;100352.31;4823936;29;20141;-75
2021/01/31 08:57:32;;;;;;;50.00;30.20;;;1.20;99.90;;;0.50;75.51;100336.19;4822745;29;20054;-77
2021/01/31 09:00:08;;;;;;;49.47;30.43;;;0.80;99.90;;;0.82;75.57;100335.28;4823962;29;20057;-76
2021/01/31 09:02:36;;;;;;;48.03;30.47;;;1.00;99.90;;;1.17;75.29;100338.78;4823844;29;20420;-73
2021/01/31 09:05:13;;;;;;;54.20;31.70;;;1.20;99.90;;;1.07;74.54;100351.50;4824011;29;20101;-72
2021/01/31 09:07:45;;;;;;;50.07;31.53;;;1.30;99.90;;;1.43;75.02;100345.47;4823998;29;20137;-72
2021/01/31 09:10:37;;;;;;;49.73;30.73;;;1.40;99.90;;;1.81;73.83;100347.22;4823770;29;20055;-73
2021/01/31 09:13:16;;;;;;;49.10;29.97;;;1.80;99.90;;;1.63;73.11;100332.91;4826185;29;20070;-73
2021/01/31 09:15:44;;;;;;;47.00;29.20;;;1.70;99.90;;;2.09;72.62;100343.47;4826346;29;20073;-73
2021/01/31 09:18:19;;;;;;;46.67;28.87;;;2.10;99.90;;;2.06;71.33;100334.69;4827467;29;20058;-74
2021/01/31 09:20:47;;;;;;;45.57;29.97;;;2.30;99.90;;;1.90;71.61;100336.09;4826871;29;20055;-73
2021/01/31 09:23:21;;;;;;;46.33;30.53;;;2.10;99.90;;;1.83;71.98;100335.13;4826945;29;20189;-79
2021/01/31 09:25:50;;;;;;;47.10;30.17;;;2.00;99.90;;;1.96;71.72;100338.84;4826959;29;20069;-77
2021/01/31 09:28:21;;;;;;;46.20;30.63;;;2.10;99.90;;;1.87;72.15;100335.16;4827069;29;20054;-76
2021/01/31 09:30:54;;;;;;;44.50;29.30;;;2.00;99.90;;;2.30;71.42;100338.72;4827158;29;20069;-73
2021/01/31 09:33:26;;;;;;;43.40;29.27;;;2.30;99.90;;;2.63;70.67;100331.50;4825900;29;20066;-71
2021/01/31 09:35:53;;;;;;;41.80;28.40;;;2.60;99.90;;;3.00;70.30;100329.56;4826746;29;20061;-71
2021/01/31 09:38:28;;;;;;;44.63;28.57;;;3.00;99.90;;;3.16;68.98;100326.31;4826892;29;20066;-73
2021/01/31 09:40:59;;;;;;;45.50;28.87;;;3.20;99.90;;;3.01;68.66;100336.53;4826781;29;20161;-71
2021/01/31 09:43:30;;;;;;;42.33;27.80;;;3.20;99.90;;;2.90;69.34;100322.41;4826743;29;20054;-74
2021/01/31 09:46:00;;;;;;;45.47;28.70;;;3.00;99.90;;;2.35;68.82;100321.41;4825476;29;20145;-74
2021/01/31 09:48:31;;;;;;;39.87;28.03;;;2.80;99.90;;;2.64;70.67;100319.34;4826626;29;20051;-74
2021/01/31 09:51:02;;;;;;;43.67;28.33;;;2.70;99.90;;;2.44;69.73;100318.09;4826689;29;20092;-73
2021/01/31 09:53:35;;;;;;;43.58;28.90;;;2.60;99.90;;;2.34;70.49;100285.72;4825731;29;20069;-73
2021/01/31 09:56:06;;;;;;;47.30;28.43;;;2.60;99.90;;;2.98;69.57;100294.69;4825286;29;20058;-71
2021/01/31 09:58:42;;;;;;;42.80;28.03;;;3.00;99.90;;;3.09;68.52;100308.81;4826486;29;20077;-74
2021/01/31 10:01:15;;;;;;;42.90;28.77;;;3.10;99.90;;;1.51;71.24;100298.78;4825999;29;20066;-72
2021/01/31 10:03:43;;;;;;;42.23;27.33;;;2.10;99.90;;;1.51;72.05;100301.38;4825198;29;20095;-73
2021/01/31 10:06:14;;;;;;;45.17;28.87;;;1.90;99.90;;;2.25;71.88;100314.25;4825151;29;20145;-76
2021/01/31 10:08:53;;;;;;;43.87;28.20;;;2.20;99.90;;;1.41;73.67;100315.91;4826159;29;20066;-74
2021/01/31 10:11:30;;;;;;;42.03;28.67;;;1.70;99.90;;;2.24;73.27;100307.28;4826563;29;20080;-76
2021/01/31 10:13:58;;;;;;;42.83;27.87;;;2.10;99.90;;;2.67;71.77;100299.38;4826188;29;20084;-77
2021/01/31 10:16:29;;;;;;;39.00;25.87;;;2.60;99.90;;;1.93;70.92;100299.69;4826306;29;20058;-80
2021/01/31 10:19:16;;;;;;;42.87;26.33;;;2.30;99.90;;;1.41;73.28;100287.25;4826422;29;20050;-82
2021/01/31 10:21:50;;;;;;;45.53;27.27;;;1.70;99.90;;;1.48;74.28;100283.94;4824805;29;20062;-80
2021/01/31 10:24:32;;;;;;;39.87;26.50;;;1.60;99.90;;;1.55;73.31;100291.03;4825838;29;20536;-85
2021/01/31 10:27:24;;;;;;;43.83;27.20;;;1.60;99.90;;;1.38;74.36;100279.38;4826069;29;20100;-83
2021/01/31 10:29:54;;;;;;;40.97;26.23;;;1.40;99.90;;;2.14;73.19;100292.28;4826118;29;20050;-79
2021/01/31 10:32:39;;;;;;;41.05;27.35;;;2.10;99.90;;;1.84;73.45;100248.22;4826045;29;20561;-79
2021/01/31 10:35:25;;;;;;;40.97;26.57;;;2.00;99.90;;;1.81;72.50;100289.00;4824527;29;20054;-80
2021/01/31 10:37:55;;;;;;;41.43;26.90;;;2.00;99.90;;;1.42;73.97;100268.16;4826026;29;20061;-80
2021/01/31 10:40:23;;;;;;;40.60;25.63;;;1.70;99.90;;;1.59;72.67;100281.56;4825589;29;20509;-80
2021/01/31 10:43:10;;;;;;;40.00;26.27;;;1.80;99.90;;;2.01;73.66;100292.91;4825930;29;20062;-73
2021/01/31 10:45:38;;;;;;;37.90;25.27;;;2.00;99.90;;;2.20;71.67;100278.47;4825614;29;20062;-81
2021/01/31 10:48:06;;;;;;;43.07;26.97;;;2.30;99.90;;;1.51;72.62;100218.84;4824134;29;20050;-84